Time;durP1;ratioP1;P1;durP2;ratioP2;P2;SDS_P1;SDS_P2;PMS_P1;PMS_P2;Temp;Humidity;BMP_temperature;BMP_pressure;BME280_temperature;BME280_humidity;BME280_pressure;Samples;Min_cycle;Max_cycle;Signal;HPM_P1;HPM_P2
2021/04/14 00:02:07;;;;;;;9.10;5.40;;;1.60;82.10;;;;;;5055190;28;20086;-45
2021/04/14 00:04:33;;;;;;;10.50;5.93;;;1.60;82.00;;;;;;5051889;28;20036;-48
2021/04/14 00:07:00;;;;;;;11.27;6.90;;;1.50;82.00;;;;;;5050579;28;20072;-46
2021/04/14 00:09:29;;;;;;;17.27;7.60;;;1.40;82.40;;;;;;5051059;28;21167;-46
2021/04/14 00:11:56;;;;;;;14.65;7.65;;;1.40;82.50;;;;;;5062463;28;20053;-46
2021/04/14 00:14:22;;;;;;;14.55;7.55;;;1.40;82.70;;;;;;5055557;28;20047;-46
2021/04/14 00:16:48;;;;;;;12.65;6.20;;;1.30;82.80;;;;;;5054718;28;20512;-49
2021/04/14 00:19:14;;;;;;;13.27;6.60;;;1.30;82.70;;;;;;5065902;28;20057;-47
2021/04/14 00:21:41;;;;;;;12.55;6.18;;;1.30;82.80;;;;;;5051204;28;20057;-48
2021/04/14 00:24:14;;;;;;;12.32;6.50;;;1.20;83.10;;;;;;5057756;28;20090;-49
2021/04/14 00:26:40;;;;;;;11.32;6.20;;;1.20;83.30;;;;;;5055459;28;20136;-46
2021/04/14 00:29:06;;;;;;;13.45;6.63;;;1.20;84.00;;;;;;5059921;28;20426;-48
2021/04/14 00:31:35;;;;;;;17.50;7.50;;;1.10;83.30;;;;;;5053822;28;20040;-47
2021/04/14 00:34:09;;;;;;;15.45;6.78;;;1.50;83.30;;;;;;5059867;28;20554;-48
2021/04/14 00:36:36;;;;;;;13.85;6.70;;;1.10;83.20;;;;;;5051095;28;20051;-48
2021/04/14 00:39:06;;;;;;;15.00;7.15;;;1.00;83.70;;;;;;5048241;28;20120;-49
2021/04/14 00:41:31;;;;;;;13.93;6.20;;;1.10;84.20;;;;;;5057815;28;20526;-46
2021/04/14 00:43:57;;;;;;;15.55;6.07;;;1.00;84.40;;;;;;5045152;28;20451;-45
2021/04/14 00:46:24;;;;;;;9.43;4.90;;;0.90;84.10;;;;;;5044038;28;20136;-47
2021/04/14 00:48:49;;;;;;;9.50;3.88;;;0.80;84.00;;;;;;5056773;28;20111;-46
2021/04/14 00:51:16;;;;;;;8.05;4.80;;;0.80;84.20;;;;;;5051176;28;20152;-49
2021/04/14 00:53:42;;;;;;;14.63;7.10;;;0.70;84.00;;;;;;5050189;28;20043;-45
2021/04/14 00:56:08;;;;;;;15.77;6.43;;;0.70;84.20;;;;;;5050174;28;20041;-46
2021/04/14 00:58:33;;;;;;;17.90;8.07;;;0.60;84.30;;;;;;5064375;28;20432;-47
2021/04/14 01:00:59;;;;;;;14.45;8.23;;;0.60;84.60;;;;;;5049733;28;20045;-50
2021/04/14 01:03:34;;;;;;;14.60;8.65;;;0.70;85.40;;;;;;5050423;28;20106;-48
2021/04/14 01:06:26;;;;;;;18.30;8.65;;;0.60;85.10;;;;;;5042673;28;20132;-46
2021/04/14 01:08:52;;;;;;;20.50;9.40;;;0.60;85.10;;;;;;5046332;28;20414;-48
2021/04/14 01:11:18;;;;;;;16.50;9.75;;;0.60;85.10;;;;;;5050522;28;20048;-47
2021/04/14 01:13:44;;;;;;;19.58;9.73;;;0.60;85.30;;;;;;5049497;28;20124;-49
2021/04/14 01:16:11;;;;;;;21.92;10.38;;;0.70;85.30;;;;;;5056775;28;20041;-48
2021/04/14 01:18:38;;;;;;;19.25;10.05;;;0.70;85.50;;;;;;5043796;28;20049;-47
2021/04/14 01:21:18;;;;;;;15.00;9.45;;;0.70;85.70;;;;;;5044641;28;20040;-50
2021/04/14 01:23:45;;;;;;;16.50;9.70;;;0.70;85.70;;;;;;5031501;28;20048;-47
2021/04/14 01:26:10;;;;;;;23.67;10.05;;;0.70;85.80;;;;;;5044223;28;20044;-48
2021/04/14 01:28:39;;;;;;;19.92;10.38;;;0.70;85.80;;;;;;5033856;28;20478;-49
2021/04/14 01:31:12;;;;;;;15.80;9.32;;;0.70;86.10;;;;;;5050065;28;20033;-47
2021/04/14 01:33:38;;;;;;;19.17;9.82;;;0.70;86.20;;;;;;5045079;28;20037;-47
2021/04/14 01:36:07;;;;;;;18.27;9.90;;;0.70;86.40;;;;;;5032989;28;20046;-46
2021/04/14 01:38:32;;;;;;;19.45;9.52;;;0.70;86.30;;;;;;5035983;28;20045;-46
2021/04/14 01:41:00;;;;;;;14.55;8.32;;;0.70;86.40;;;;;;5055661;28;20135;-47
2021/04/14 01:43:26;;;;;;;16.23;8.88;;;0.60;86.10;;;;;;5049158;28;20049;-47
2021/04/14 01:45:51;;;;;;;15.18;8.88;;;0.60;85.90;;;;;;5042667;28;20553;-47
2021/04/14 01:48:18;;;;;;;16.52;9.98;;;0.50;86.00;;;;;;5034803;28;20053;-45
2021/04/14 01:50:44;;;;;;;17.25;10.25;;;0.50;86.20;;;;;;5048799;28;20036;-47
2021/04/14 01:53:12;;;;;;;22.40;11.45;;;0.60;86.30;;;;;;5049622;28;20064;-47
2021/04/14 01:55:39;;;;;;;22.80;10.88;;;0.60;86.40;;;;;;5039414;28;20117;-47
2021/04/14 01:58:06;;;;;;;16.60;9.43;;;0.60;86.30;;;;;;5042917;28;20048;-46
2021/04/14 02:00:42;;;;;;;16.50;9.55;;;0.70;86.60;;;;;;5042215;28;20053;-49
2021/04/14 02:03:08;;;;;;;23.80;10.57;;;0.70;86.50;;;;;;5040441;28;20098;-47
2021/04/14 02:05:34;;;;;;;16.27;9.80;;;0.60;86.30;;;;;;5040700;28;20036;-50
2021/04/14 02:08:01;;;;;;;16.42;10.27;;;0.60;86.40;;;;;;5058304;28;20045;-47
2021/04/14 02:10:30;;;;;;;18.30;11.02;;;0.70;87.10;;;;;;5048706;28;20051;-47
2021/04/14 02:12:57;;;;;;;19.77;11.90;;;0.70;87.90;;;;;;5050896;28;20043;-46
2021/04/14 02:15:26;;;;;;;16.35;10.70;;;0.70;87.70;;;;;;5056049;28;20110;-49
2021/04/14 02:18:12;;;;;;;21.83;11.13;;;0.80;87.70;;;;;;5038211;28;20049;-48
2021/04/14 02:20:38;;;;;;;20.70;11.65;;;0.80;88.00;;;;;;5050265;28;20056;-48
2021/04/14 02:23:13;;;;;;;22.60;11.30;;;0.80;87.60;;;;;;5048908;28;20040;-45
2021/04/14 02:25:39;;;;;;;18.80;10.57;;;0.80;87.30;;;;;;5052230;28;20041;-49
2021/04/14 02:28:05;;;;;;;15.25;8.55;;;0.70;86.90;;;;;;5052166;28;20183;-49
2021/04/14 02:30:31;;;;;;;13.80;9.10;;;0.70;86.40;;;;;;5053694;28;20049;-49
2021/04/14 02:32:57;;;;;;;15.63;7.88;;;0.60;86.20;;;;;;5052768;28;20032;-47
2021/04/14 02:35:24;;;;;;;17.65;8.43;;;0.50;85.90;;;;;;5035486;28;20086;-48
2021/04/14 02:38:11;;;;;;;17.02;8.73;;;0.50;85.90;;;;;;5055286;28;20414;-48
2021/04/14 02:40:48;;;;;;;17.38;9.30;;;0.40;85.90;;;;;;5065892;28;20085;-46
2021/04/14 02:43:33;;;;;;;20.73;10.43;;;0.30;87.00;;;;;;5036865;28;20045;-48
2021/04/14 02:45:59;;;;;;;19.70;10.63;;;0.30;86.90;;;;;;5065028;28;20048;-47
2021/04/14 02:48:25;;;;;;;20.05;10.73;;;0.30;87.50;;;;;;5046507;28;20166;-46
2021/04/14 02:51:10;;;;;;;19.60;10.45;;;0.30;87.20;;;;;;5043999;28;20409;-48
2021/04/14 02:53:36;;;;;;;21.17;11.77;;;0.30;87.10;;;;;;5048060;28;20124;-49
2021/04/14 02:56:02;;;;;;;22.02;11.05;;;0.30;87.00;;;;;;5045381;28;20482;-50
2021/04/14 02:58:28;;;;;;;19.48;10.30;;;0.30;86.90;;;;;;5043536;28;20094;-48
2021/04/14 03:00:54;;;;;;;17.98;9.57;;;0.20;87.20;;;;;;5048113;28;20053;-48
2021/04/14 03:03:20;;;;;;;18.63;10.38;;;0.20;87.00;;;;;;5048135;28;20045;-46
2021/04/14 03:05:45;;;;;;;21.10;10.70;;;0.20;86.70;;;;;;5052567;28;20079;-49
2021/04/14 03:08:11;;;;;;;20.48;10.07;;;0.10;86.90;;;;;;5051698;28;20033;-50
2021/04/14 03:10:37;;;;;;;20.90;11.02;;;0.10;87.30;;;;;;5054040;28;20049;-47
2021/04/14 03:13:24;;;;;;;22.48;10.57;;;0.10;87.00;;;;;;5037613;28;20462;-47
2021/04/14 03:15:50;;;;;;;21.48;9.63;;;0.10;87.50;;;;;;5042580;28;20040;-48
2021/04/14 03:18:16;;;;;;;19.08;10.32;;;0.10;87.00;;;;;;5050493;28;20041;-49
2021/04/14 03:20:42;;;;;;;19.45;9.77;;;0.10;86.80;;;;;;5052317;28;20037;-47
2021/04/14 03:23:13;;;;;;;20.23;11.05;;;0.10;86.70;;;;;;5051350;28;20036;-47
2021/04/14 03:25:39;;;;;;;23.45;11.85;;;0.10;86.90;;;;;;5052765;28;20056;-46
2021/04/14 03:28:06;;;;;;;20.10;11.20;;;0.00;86.90;;;;;;5056446;28;20041;-46
2021/04/14 03:30:32;;;;;;;21.60;11.35;;;0.00;87.00;;;;;;5061989;28;20054;-47
2021/04/14 03:32:59;;;;;;;24.63;10.82;;;0.00;87.10;;;;;;5054795;28;20045;-47
2021/04/14 03:35:26;;;;;;;19.13;10.07;;;-0.10;87.10;;;;;;5057944;28;20068;-46
2021/04/14 03:37:52;;;;;;;18.75;9.50;;;-0.10;87.10;;;;;;5052564;28;20048;-47
2021/04/14 03:40:38;;;;;;;18.17;10.13;;;-0.10;87.20;;;;;;5059797;28;20059;-49
2021/04/14 03:43:04;;;;;;;17.85;10.70;;;-0.10;87.20;;;;;;5051942;28;20044;-49
2021/04/14 03:45:39;;;;;;;19.42;9.95;;;-0.10;87.30;;;;;;5060560;28;20065;-46
2021/04/14 03:48:06;;;;;;;18.23;10.15;;;-0.20;87.20;;;;;;5053167;28;20033;-47
2021/04/14 03:50:33;;;;;;;16.50;9.32;;;-0.10;87.30;;;;;;5051073;28;20129;-49
2021/04/14 03:53:28;;;;;;;19.55;8.73;;;-0.20;87.40;;;;;;5047025;28;20512;-48
2021/04/14 03:55:57;;;;;;;18.58;9.77;;;-0.20;87.10;;;;;;5049673;28;20037;-49
2021/04/14 03:58:24;;;;;;;16.17;10.23;;;-0.10;87.60;;;;;;5055414;28;20047;-46
2021/04/14 04:00:52;;;;;;;18.73;10.38;;;-0.10;87.30;;;;;;5062851;28;20075;-49
2021/04/14 04:03:19;;;;;;;23.98;11.65;;;-0.20;87.00;;;;;;5051627;28;20386;-47
2021/04/14 04:05:46;;;;;;;17.90;11.95;;;-0.30;87.20;;;;;;5052492;28;20044;-46
2021/04/14 04:08:31;;;;;;;21.23;11.82;;;-0.20;88.00;;;;;;5052547;28;20420;-47
2021/04/14 04:10:57;;;;;;;21.98;10.82;;;-0.10;88.60;;;;;;5048678;28;20132;-49
2021/04/14 04:13:23;;;;;;;20.08;11.20;;;-0.20;88.30;;;;;;5048394;28;20044;-49
2021/04/14 04:15:49;;;;;;;22.30;11.77;;;-0.10;89.60;;;;;;5050610;28;20108;-50
2021/04/14 04:18:15;;;;;;;19.23;11.35;;;0.00;89.40;;;;;;5049854;28;20406;-49
2021/04/14 04:20:40;;;;;;;23.40;10.98;;;0.00;89.20;;;;;;5037013;28;20497;-49
2021/04/14 04:23:08;;;;;;;17.85;10.65;;;-0.10;88.80;;;;;;5040454;28;20051;-46
2021/04/14 04:25:35;;;;;;;18.77;10.30;;;-0.10;88.80;;;;;;5034916;28;20037;-47
2021/04/14 04:28:02;;;;;;;22.73;11.13;;;-0.20;88.70;;;;;;5042794;28;20434;-48
2021/04/14 04:30:28;;;;;;;18.17;10.00;;;-0.20;88.30;;;;;;5047184;28;20032;-47
2021/04/14 04:32:55;;;;;;;18.27;10.25;;;-0.30;87.80;;;;;;5049743;28;20036;-49
2021/04/14 04:35:22;;;;;;;16.02;9.52;;;-0.30;88.10;;;;;;5036315;28;20509;-47
2021/04/14 04:37:48;;;;;;;16.38;9.77;;;-0.40;87.70;;;;;;5049303;28;20493;-47
2021/04/14 04:40:19;;;;;;;15.55;10.10;;;-0.40;87.50;;;;;;5051093;28;20131;-47
2021/04/14 04:42:46;;;;;;;19.90;11.60;;;-0.40;88.30;;;;;;5038061;28;20087;-46
2021/04/14 04:45:12;;;;;;;18.02;10.10;;;-0.40;87.90;;;;;;5048268;28;20139;-46
2021/04/14 04:47:38;;;;;;;21.80;11.98;;;-0.40;87.90;;;;;;5048865;28;20043;-46
2021/04/14 04:50:06;;;;;;;23.75;11.65;;;-0.40;88.10;;;;;;5053087;28;20049;-49
2021/04/14 04:52:32;;;;;;;22.80;11.52;;;-0.40;88.00;;;;;;5039469;28;20045;-48
2021/04/14 04:54:57;;;;;;;22.02;10.68;;;-0.40;87.90;;;;;;5034222;28;20382;-48
2021/04/14 04:57:23;;;;;;;22.00;10.65;;;-0.40;87.90;;;;;;5050332;28;20041;-47
2021/04/14 04:59:49;;;;;;;21.02;10.88;;;-0.40;87.60;;;;;;5049994;28;20064;-47
2021/04/14 05:02:14;;;;;;;20.80;10.75;;;-0.40;87.70;;;;;;5044599;28;20116;-45
2021/04/14 05:05:00;;;;;;;19.83;10.82;;;-0.40;87.60;;;;;;5045148;28;20106;-49
2021/04/14 05:07:26;;;;;;;25.77;11.43;;;-0.50;87.60;;;;;;5057221;28;20471;-49
2021/04/14 05:09:52;;;;;;;18.63;11.80;;;-0.40;87.80;;;;;;5056440;28;20132;-47
2021/04/14 05:12:18;;;;;;;21.63;12.25;;;-0.40;87.90;;;;;;5050581;28;20541;-48
2021/04/14 05:14:44;;;;;;;19.60;11.27;;;-0.50;87.70;;;;;;5063018;28;20449;-45
2021/04/14 05:17:09;;;;;;;20.33;11.52;;;-0.50;87.90;;;;;;5055253;28;20032;-47
2021/04/14 05:19:35;;;;;;;18.83;11.50;;;-0.40;88.30;;;;;;5060286;28;20052;-46
2021/04/14 05:22:01;;;;;;;21.38;11.18;;;-0.40;88.10;;;;;;5049728;28;20044;-46
2021/04/14 05:24:27;;;;;;;21.27;11.57;;;-0.30;88.00;;;;;;5058872;28;20040;-49
2021/04/14 05:27:13;;;;;;;20.45;11.90;;;-0.30;87.80;;;;;;5048406;28;20046;-48
2021/04/14 05:29:39;;;;;;;20.17;12.32;;;-0.20;88.00;;;;;;5039354;28;20120;-48
2021/04/14 05:32:05;;;;;;;19.92;11.38;;;-0.20;87.90;;;;;;5049684;28;20117;-46
2021/04/14 05:34:42;;;;;;;20.80;11.45;;;-0.10;88.00;;;;;;5038789;28;20527;-49
2021/04/14 05:37:08;;;;;;;21.75;12.00;;;0.00;87.50;;;;;;5048690;28;20076;-45
2021/04/14 05:39:54;;;;;;;23.55;12.07;;;0.20;87.00;;;;;;5038754;28;20056;-49
2021/04/14 05:42:21;;;;;;;21.65;12.02;;;0.30;86.60;;;;;;5050266;28;20422;-47
2021/04/14 05:44:46;;;;;;;26.83;13.38;;;0.40;86.50;;;;;;5038374;28;20052;-47
2021/04/14 05:47:12;;;;;;;22.52;12.52;;;0.50;86.30;;;;;;5048955;28;20120;-45
2021/04/14 05:49:58;;;;;;;23.23;12.60;;;0.80;86.20;;;;;;5038047;28;20048;-46
2021/04/14 05:52:23;;;;;;;18.45;11.10;;;1.20;84.90;;;;;;5053802;28;20381;-46
2021/04/14 05:54:49;;;;;;;19.00;11.30;;;1.50;83.60;;;;;;5042222;28;20068;-46
2021/04/14 05:57:14;;;;;;;20.00;11.30;;;1.80;82.50;;;;;;5053985;28;20127;-50
2021/04/14 05:59:40;;;;;;;19.60;10.60;;;2.00;81.60;;;;;;5054658;28;20083;-46
2021/04/14 06:02:06;;;;;;;20.77;11.43;;;2.10;80.90;;;;;;5048068;28;20090;-50
2021/04/14 06:04:32;;;;;;;22.20;10.85;;;2.20;80.40;;;;;;5042741;28;20045;-45
2021/04/14 06:06:57;;;;;;;18.77;11.05;;;2.30;80.10;;;;;;5046354;28;20102;-45
2021/04/14 06:09:23;;;;;;;18.10;11.52;;;2.30;80.00;;;;;;5054284;28;20051;-45
2021/04/14 06:11:48;;;;;;;17.48;11.80;;;2.40;80.50;;;;;;5047305;28;20044;-47
2021/04/14 06:14:14;;;;;;;19.48;12.45;;;3.10;78.80;;;;;;5049625;28;20074;-47
2021/04/14 06:16:40;;;;;;;20.17;11.45;;;3.70;76.10;;;;;;5041321;28;20067;-46
2021/04/14 06:19:06;;;;;;;19.60;11.10;;;4.00;75.80;;;;;;5063587;28;20041;-46
2021/04/14 06:21:37;;;;;;;17.13;10.57;;;3.90;75.40;;;;;;5042610;28;20049;-45
2021/04/14 06:24:05;;;;;;;16.88;11.00;;;3.70;75.80;;;;;;5049251;28;20416;-46
2021/04/14 06:26:38;;;;;;;18.30;10.90;;;3.60;77.30;;;;;;5046691;28;20056;-47
2021/04/14 06:29:04;;;;;;;19.67;10.50;;;3.50;79.00;;;;;;5050802;28;20048;-47
2021/04/14 06:31:39;;;;;;;14.90;10.15;;;3.70;79.60;;;;;;5058099;28;20044;-47
2021/04/14 06:34:11;;;;;;;20.10;10.43;;;3.90;79.50;;;;;;5043301;28;20036;-46
2021/04/14 06:36:37;;;;;;;19.80;11.00;;;4.00;80.10;;;;;;5048821;28;20063;-46
2021/04/14 06:39:28;;;;;;;19.15;11.95;;;3.90;80.70;;;;;;5052095;28;20135;-45
2021/04/14 06:45:19;;;;;;;18.90;11.38;;;3.90;82.30;;;;;;5050204;28;20567;-47
2021/04/14 06:47:51;;;;;;;18.85;11.43;;;3.90;83.10;;;;;;5045806;28;20048;-47
2021/04/14 06:50:20;;;;;;;18.20;11.45;;;4.00;83.50;;;;;;5045619;28;20513;-47
2021/04/14 06:52:50;;;;;;;17.70;11.48;;;4.10;83.70;;;;;;5053531;28;20094;-47
2021/04/14 06:55:27;;;;;;;20.48;10.30;;;4.10;84.10;;;;;;5046586;28;20051;-46
2021/04/14 06:58:16;;;;;;;14.77;9.05;;;4.30;84.30;;;;;;5041973;28;20067;-46
2021/04/14 07:00:51;;;;;;;11.13;8.00;;;4.40;84.90;;;;;;5042178;28;20450;-47
2021/04/14 07:04:06;;;;;;;11.90;7.72;;;4.50;84.50;;;;;;5039354;28;20503;-48
2021/04/14 07:06:33;;;;;;;12.18;7.00;;;4.70;84.00;;;;;;5042288;28;20049;-47
2021/04/14 07:09:15;;;;;;;11.90;6.93;;;4.80;84.30;;;;;;5040975;28;20064;-47
2021/04/14 07:11:42;;;;;;;15.38;6.50;;;4.90;83.90;;;;;;5042704;28;20482;-46
2021/04/14 07:14:09;;;;;;;12.23;6.45;;;5.00;83.90;;;;;;5041966;28;20136;-47
2021/04/14 07:16:54;;;;;;;10.90;6.03;;;5.20;83.90;;;;;;5044914;28;20056;-49
2021/04/14 07:19:20;;;;;;;10.57;5.75;;;5.30;84.00;;;;;;5045028;28;20410;-47
2021/04/14 07:21:56;;;;;;;12.35;5.45;;;5.40;83.40;;;;;;5043600;28;20505;-47
2021/04/14 07:24:34;;;;;;;7.65;4.43;;;5.50;82.90;;;;;;5041492;28;20041;-48
2021/04/14 07:27:24;;;;;;;8.60;3.90;;;5.60;82.40;;;;;;5044597;28;20040;-47
2021/04/14 07:29:59;;;;;;;12.45;5.40;;;5.70;81.70;;;;;;5038554;28;20067;-48
2021/04/14 07:33:28;;;;;;;12.70;4.30;;;5.90;81.80;;;;;;5044142;28;20152;-46
2021/04/14 07:36:06;;;;;;;7.15;3.17;;;6.10;81.90;;;;;;5045155;28;20084;-50
2021/04/14 07:38:55;;;;;;;5.75;2.80;;;6.20;80.50;;;;;;5045007;28;20075;-49
2021/04/14 07:41:30;;;;;;;7.88;3.30;;;6.30;79.90;;;;;;5051517;28;20075;-48
2021/04/14 07:44:22;;;;;;;6.95;2.88;;;6.40;79.80;;;;;;5048391;28;20494;-49
2021/04/14 07:46:48;;;;;;;7.77;3.10;;;6.60;79.40;;;;;;5039906;28;20041;-47
2021/04/14 07:49:17;;;;;;;6.15;3.20;;;6.70;79.20;;;;;;5045281;28;20041;-46
2021/04/14 07:51:43;;;;;;;10.35;1.77;;;6.80;78.40;;;;;;5036975;28;20041;-46
2021/04/14 07:54:16;;;;;;;3.67;1.48;;;6.90;76.60;;;;;;5041613;28;20421;-47
2021/04/14 07:56:47;;;;;;;6.35;1.10;;;7.00;74.00;;;;;;5041910;28;20486;-46
2021/04/14 07:59:37;;;;;;;6.25;1.30;;;7.10;73.10;;;;;;5047612;28;20516;-46
2021/04/14 08:02:12;;;;;;;3.40;1.15;;;7.20;69.70;;;;;;5046192;28;20413;-47
2021/04/14 08:04:46;;;;;;;6.93;1.50;;;7.20;68.40;;;;;;5049307;28;20044;-48
2021/04/14 08:07:17;;;;;;;4.57;1.35;;;7.30;69.90;;;;;;5050003;28;20040;-47
2021/04/14 08:10:05;;;;;;;4.00;1.52;;;7.30;67.70;;;;;;5044619;28;20408;-48
2021/04/14 08:12:37;;;;;;;6.57;1.52;;;7.40;68.70;;;;;;5046752;28;20507;-48
2021/04/14 08:15:07;;;;;;;;;;;7.40;69.30;;;;;;5051107;28;20112;-46
2021/04/14 08:17:33;;;;;;;5.18;1.45;;;7.40;67.50;;;;;;5044077;28;19924;-45
2021/04/14 08:20:00;;;;;;;4.72;1.80;;;7.50;68.90;;;;;;5057283;28;20090;-44
2021/04/14 08:22:28;;;;;;;7.10;1.83;;;7.50;69.10;;;;;;5046358;28;20536;-46
2021/04/14 08:25:01;;;;;;;6.65;2.08;;;7.40;68.80;;;;;;5050911;28;20048;-46
2021/04/14 08:27:45;;;;;;;7.60;1.75;;;7.50;67.50;;;;;;5047469;28;20045;-47
2021/04/14 08:30:19;;;;;;;8.38;1.55;;;7.40;69.10;;;;;;5041412;28;20044;-46
2021/04/14 08:32:55;;;;;;;7.60;1.30;;;7.50;68.60;;;;;;5042168;28;20488;-46
2021/04/14 08:35:43;;;;;;;4.28;1.70;;;7.40;66.10;;;;;;5042900;28;20091;-46
2021/04/14 08:38:22;;;;;;;6.97;1.70;;;7.20;66.30;;;;;;5042140;28;20090;-49
2021/04/14 08:40:51;;;;;;;5.25;2.28;;;7.10;67.90;;;;;;5036465;28;20037;-48
2021/04/14 08:43:32;;;;;;;6.95;1.80;;;7.00;68.00;;;;;;5029135;28;20060;-48
2021/04/14 08:46:08;;;;;;;6.57;1.58;;;7.20;64.80;;;;;;5038431;28;20292;-46
2021/04/14 08:48:36;;;;;;;6.30;1.60;;;7.40;65.10;;;;;;5050418;28;20146;-49
2021/04/14 08:51:06;;;;;;;5.53;1.60;;;7.60;65.30;;;;;;5041218;28;20044;-47
2021/04/14 08:53:35;;;;;;;5.15;1.65;;;7.60;64.50;;;;;;5036181;28;20041;-50
2021/04/14 08:56:01;;;;;;;7.93;1.42;;;7.60;62.20;;;;;;5050373;28;20057;-47
2021/04/14 08:58:27;;;;;;;9.45;1.50;;;7.60;61.40;;;;;;5052036;28;20049;-47
2021/04/14 09:00:53;;;;;;;5.60;1.40;;;7.80;58.80;;;;;;5042213;28;20041;-50
2021/04/14 09:03:22;;;;;;;8.90;1.70;;;7.80;60.10;;;;;;5033727;28;20037;-48
2021/04/14 09:05:48;;;;;;;8.70;1.50;;;7.70;60.90;;;;;;5035300;28;20045;-50
2021/04/14 09:08:21;;;;;;;8.30;1.60;;;7.60;60.40;;;;;;5047735;28;20110;-49
2021/04/14 09:11:11;;;;;;;8.02;1.65;;;7.80;58.20;;;;;;5045809;28;20059;-48
2021/04/14 09:13:48;;;;;;;4.88;1.20;;;7.80;56.80;;;;;;5040126;28;20084;-49
2021/04/14 09:16:31;;;;;;;4.47;1.38;;;7.80;58.30;;;;;;5034312;28;20068;-48
2021/04/14 09:19:18;;;;;;;2.97;1.05;;;7.90;57.90;;;;;;5046967;28;20098;-48
2021/04/14 09:21:50;;;;;;;5.57;1.42;;;8.20;58.40;;;;;;5034380;28;20045;-51
2021/04/14 09:24:34;;;;;;;7.57;1.33;;;8.30;57.60;;;;;;5041648;28;20060;-51
2021/04/14 09:27:02;;;;;;;4.50;1.30;;;8.40;55.20;;;;;;5044367;28;20098;-52
2021/04/14 09:29:42;;;;;;;4.78;1.33;;;8.30;56.20;;;;;;5044794;28;20128;-50
2021/04/14 09:32:11;;;;;;;6.57;1.27;;;8.10;55.60;;;;;;5046281;28;20050;-52
2021/04/14 09:34:38;;;;;;;8.20;1.70;;;7.90;56.90;;;;;;5045835;28;20033;-49
2021/04/14 09:37:27;;;;;;;4.57;1.45;;;7.70;57.80;;;;;;5049952;28;20040;-48
2021/04/14 09:39:59;;;;;;;5.68;1.45;;;7.60;58.80;;;;;;5040079;28;20964;-48
2021/04/14 09:42:24;;;;;;;4.55;1.30;;;7.50;58.80;;;;;;5052522;28;20503;-51
2021/04/14 09:44:56;;;;;;;5.03;1.20;;;7.40;60.30;;;;;;5053844;28;20052;-49
2021/04/14 09:47:25;;;;;;;7.97;1.48;;;7.50;60.40;;;;;;5047842;28;20056;-48
2021/04/14 09:49:52;;;;;;;5.93;1.70;;;7.80;61.10;;;;;;5046763;28;20071;-52
2021/04/14 09:52:30;;;;;;;8.70;1.50;;;8.20;61.30;;;;;;5052551;28;20037;-50
2021/04/14 09:55:19;;;;;;;7.60;1.35;;;8.50;59.20;;;;;;5051296;28;20545;-53
2021/04/14 09:57:47;;;;;;;2.40;1.30;;;8.90;55.00;;;;;;5045556;28;20144;-51
2021/04/14 10:00:38;;;;;;;2.88;1.10;;;9.10;55.40;;;;;;5046546;28;20037;-51
2021/04/14 10:03:16;;;;;;;1.65;0.90;;;9.30;55.60;;;;;;5045912;28;20034;-52
2021/04/14 10:05:42;;;;;;;5.22;1.23;;;9.40;54.70;;;;;;5049596;28;20033;-49
2021/04/14 10:08:08;;;;;;;6.80;1.30;;;9.40;55.80;;;;;;5052942;28;20048;-52
2021/04/14 10:10:46;;;;;;;3.38;1.20;;;9.20;54.80;;;;;;5049813;28;20123;-53
2021/04/14 10:13:14;;;;;;;4.22;1.35;;;8.90;53.40;;;;;;5053755;28;20041;-51
2021/04/14 10:15:43;;;;;;;3.70;1.38;;;8.70;56.20;;;;;;5054405;28;20127;-55
2021/04/14 10:18:29;;;;;;;5.70;1.52;;;8.50;56.10;;;;;;5045341;28;20505;-52
2021/04/14 10:21:09;;;;;;;4.53;1.45;;;8.40;56.90;;;;;;5050771;28;20049;-51
2021/04/14 10:23:37;;;;;;;5.10;1.23;;;8.30;56.40;;;;;;5049290;28;20493;-53
2021/04/14 10:26:05;;;;;;;7.68;1.25;;;8.10;58.00;;;;;;5054248;28;20065;-52
2021/04/14 10:28:31;;;;;;;3.28;1.10;;;8.20;59.30;;;;;;5045775;28;20394;-50
2021/04/14 10:31:14;;;;;;;4.03;1.42;;;8.00;59.00;;;;;;5048001;28;20033;-52
2021/04/14 10:33:40;;;;;;;;;;;7.90;58.20;;;;;;5041384;28;20049;-53
2021/04/14 10:36:15;;;;;;;7.47;1.67;;;8.10;59.10;;;;;;5042126;28;20441;-53
2021/04/14 10:38:42;;;;;;;7.72;1.55;;;8.40;59.50;;;;;;5056532;28;20501;-51
2021/04/14 10:41:30;;;;;;;3.38;1.10;;;8.60;58.50;;;;;;5057691;28;20048;-50
2021/04/14 10:43:57;;;;;;;4.20;1.25;;;8.70;56.60;;;;;;5042564;28;20055;-54
2021/04/14 10:46:28;;;;;;;6.85;1.10;;;8.60;56.10;;;;;;5037408;28;20497;-52
2021/04/14 10:49:00;;;;;;;3.20;1.05;;;8.60;56.10;;;;;;5041174;28;20045;-54
2021/04/14 10:51:32;;;;;;;6.00;1.17;;;8.60;55.60;;;;;;5040329;28;20094;-54
2021/04/14 10:54:00;;;;;;;4.68;1.15;;;8.50;56.70;;;;;;5037287;28;20080;-51
2021/04/14 10:56:31;;;;;;;2.75;1.17;;;8.50;56.70;;;;;;5035319;28;20065;-50
2021/04/14 10:59:04;;;;;;;7.93;1.83;;;8.40;56.50;;;;;;5047054;28;20120;-52
2021/04/14 11:01:38;;;;;;;4.40;1.13;;;8.40;56.20;;;;;;5039205;28;20677;-54
2021/04/14 11:04:30;;;;;;;3.25;1.00;;;8.50;54.40;;;;;;5036645;28;20037;-53
2021/04/14 11:07:13;;;;;;;3.35;0.73;;;8.40;52.50;;;;;;5036480;28;20123;-50
2021/04/14 11:09:39;;;;;;;;;;;8.40;53.40;;;;;;5039971;28;20147;-53
2021/04/14 11:12:17;;;;;;;3.40;2.20;;;8.40;51.60;;;;;;5044680;28;20296;-52
2021/04/14 11:14:45;;;;;;;4.32;2.00;;;8.50;54.00;;;;;;5045642;28;20166;-52
2021/04/14 11:17:34;;;;;;;3.95;0.90;;;8.70;51.90;;;;;;5041752;28;20549;-49
2021/04/14 11:20:07;;;;;;;2.15;1.10;;;8.80;51.70;;;;;;5052824;28;20068;-53
2021/04/14 11:22:51;;;;;;;7.05;1.25;;;8.80;52.90;;;;;;5046894;28;20037;-54
2021/04/14 11:25:25;;;;;;;1.98;0.85;;;9.10;50.80;;;;;;5047974;28;20083;-50
2021/04/14 11:27:58;;;;;;;6.55;1.27;;;9.50;47.30;;;;;;5039040;28;20044;-49
2021/04/14 11:30:26;;;;;;;5.75;1.20;;;9.50;49.30;;;;;;5047771;28;20045;-50
2021/04/14 11:32:56;;;;;;;4.38;1.10;;;9.40;49.90;;;;;;5059990;28;20040;-51
2021/04/14 11:35:41;;;;;;;4.55;1.13;;;9.40;50.70;;;;;;5047607;28;20095;-53
2021/04/14 11:38:25;;;;;;;7.30;1.17;;;9.40;51.70;;;;;;5053273;28;20071;-50
2021/04/14 11:40:51;;;;;;;2.83;1.00;;;9.40;49.20;;;;;;5050110;28;20048;-52
2021/04/14 11:43:31;;;;;;;5.35;1.38;;;9.40;49.80;;;;;;5046389;28;20104;-54
2021/04/14 11:46:06;;;;;;;5.43;1.05;;;9.30;51.10;;;;;;5049848;28;20039;-52
2021/04/14 11:48:39;;;;;;;5.50;1.30;;;9.20;54.30;;;;;;5049291;28;20049;-54
2021/04/14 11:51:25;;;;;;;3.58;1.40;;;8.80;57.60;;;;;;5044766;28;20094;-52
2021/04/14 11:53:54;;;;;;;4.00;1.40;;;8.70;59.40;;;;;;5039219;28;20039;-53
2021/04/14 11:56:30;;;;;;;4.97;1.27;;;8.60;60.70;;;;;;5050793;28;20044;-53
2021/04/14 11:58:55;;;;;;;3.72;1.40;;;8.40;61.60;;;;;;5052707;28;20036;-53
2021/04/14 12:01:27;;;;;;;5.43;1.33;;;8.40;62.90;;;;;;5047217;28;20063;-52
2021/04/14 12:03:53;;;;;;;3.45;0.90;;;8.60;62.40;;;;;;5051362;28;20048;-50
2021/04/14 12:06:20;;;;;;;3.63;1.08;;;8.80;61.00;;;;;;5049236;28;20037;-51
2021/04/14 12:08:46;;;;;;;3.70;0.82;;;8.70;59.70;;;;;;5047708;28;20041;-52
2021/04/14 12:11:30;;;;;;;4.05;0.80;;;8.70;59.80;;;;;;5041395;28;20049;-52
2021/04/14 12:13:56;;;;;;;2.25;0.52;;;8.70;58.50;;;;;;5050026;28;20037;-55
2021/04/14 12:16:22;;;;;;;1.08;0.45;;;8.80;59.70;;;;;;5053234;28;20049;-53
2021/04/14 12:18:47;;;;;;;0.90;0.60;;;8.90;59.10;;;;;;5051601;28;20099;-52
2021/04/14 12:21:13;;;;;;;3.03;0.63;;;8.90;59.20;;;;;;5044360;28;20052;-53
2021/04/14 12:23:40;;;;;;;3.22;0.90;;;8.90;59.50;;;;;;5049809;28;20046;-53
2021/04/14 12:26:06;;;;;;;3.20;0.95;;;8.80;58.70;;;;;;5046595;28;20060;-53
2021/04/14 12:28:32;;;;;;;2.83;0.80;;;8.70;60.70;;;;;;5051579;28;20037;-51
2021/04/14 12:30:58;;;;;;;2.92;0.73;;;8.50;59.90;;;;;;5047722;28;20092;-51
2021/04/14 12:33:24;;;;;;;3.65;0.90;;;8.30;59.70;;;;;;5048340;28;20049;-55
2021/04/14 12:35:50;;;;;;;3.38;0.50;;;8.20;60.00;;;;;;5049899;28;20084;-55
2021/04/14 12:38:16;;;;;;;3.10;0.50;;;8.10;59.90;;;;;;5050426;28;20490;-54
2021/04/14 12:40:41;;;;;;;1.70;0.50;;;8.10;59.20;;;;;;5048805;28;20055;-52
2021/04/14 12:43:07;;;;;;;5.22;1.23;;;8.10;59.30;;;;;;5046464;28;20040;-52
2021/04/14 12:45:49;;;;;;;4.97;1.00;;;8.20;59.70;;;;;;5035775;28;20041;-54
2021/04/14 12:48:18;;;;;;;2.13;0.52;;;8.20;57.00;;;;;;5028498;28;20484;-53
2021/04/14 12:51:13;;;;;;;3.10;0.50;;;8.30;57.10;;;;;;5044416;28;20100;-52
2021/04/14 12:53:51;;;;;;;1.65;0.60;;;8.50;56.80;;;;;;5050320;28;20044;-53
2021/04/14 12:56:27;;;;;;;1.02;0.30;;;8.60;56.90;;;;;;5049687;28;20033;-50
2021/04/14 12:58:55;;;;;;;1.30;0.60;;;8.80;56.00;;;;;;5049684;28;20456;-50
2021/04/14 13:01:21;;;;;;;3.15;0.63;;;8.80;53.60;;;;;;5048775;28;20045;-53
2021/04/14 13:03:57;;;;;;;2.28;0.60;;;8.80;54.80;;;;;;5061656;28;20029;-52
2021/04/14 13:06:56;;;;;;;2.05;0.73;;;9.00;52.30;;;;;;5050803;28;20041;-52
2021/04/14 13:09:23;;;;;;;1.40;0.68;;;9.00;51.70;;;;;;5046689;28;20049;-51
2021/04/14 13:11:58;;;;;;;2.60;0.88;;;9.20;47.00;;;;;;5061233;28;20416;-56
2021/04/14 13:14:24;;;;;;;3.90;0.60;;;9.20;48.20;;;;;;5050826;28;20477;-49